createdAt,value
2023-02-19T00:01:45.852Z,76.97
2023-02-19T00:04:15.766Z,77.07
2023-02-19T00:06:45.466Z,77.27
2023-02-19T00:09:18.442Z,77.26
2023-02-19T00:11:47.436Z,77.27
2023-02-19T00:14:17.749Z,77.32
2023-02-19T00:16:46.443Z,76.84
2023-02-19T00:19:16.782Z,76.76
2023-02-19T00:21:45.203Z,77.07
2023-02-19T00:24:14.586Z,76.75
2023-02-19T00:26:44.290Z,76.67
2023-02-19T00:29:19.117Z,76.87
2023-02-19T00:31:47.923Z,76.66
2023-02-19T00:34:16.402Z,76.47
2023-02-19T00:36:44.124Z,76.18
2023-02-19T00:39:14.746Z,76.29
2023-02-19T00:41:43.450Z,76.20
2023-02-19T00:44:12.913Z,76.12
2023-02-19T00:46:43.023Z,76.36
2023-02-19T00:49:15.005Z,76.30
2023-02-19T00:51:43.574Z,76.37
2023-02-19T00:54:11.608Z,76.17
2023-02-19T00:56:40.068Z,76.25
2023-02-19T00:59:08.534Z,76.01
2023-02-19T01:01:36.995Z,75.79
2023-02-19T01:04:06.869Z,76.04
2023-02-19T01:06:35.757Z,75.78
2023-02-19T01:09:05.038Z,75.75
2023-02-19T01:11:33.462Z,75.85
2023-02-19T01:14:04.201Z,75.55
2023-02-19T01:16:32.998Z,75.59
2023-02-19T01:19:01.597Z,75.56
2023-02-19T01:21:29.336Z,75.16
2023-02-19T01:23:59.072Z,74.71
2023-02-19T01:26:32.008Z,75.20
2023-02-19T01:29:01.727Z,74.55
2023-02-19T01:31:30.638Z,74.64
2023-02-19T01:34:00.864Z,74.52
2023-02-19T01:36:31.927Z,74.24
2023-02-19T01:39:03.360Z,74.39
2023-02-19T01:41:34.432Z,74.03
2023-02-19T01:44:04.238Z,73.52
2023-02-19T01:46:33.733Z,73.33
2023-02-19T01:49:06.325Z,73.30
2023-02-19T01:51:36.814Z,73.14
2023-02-19T01:54:07.161Z,72.64
2023-02-19T01:56:37.894Z,72.59
2023-02-19T01:59:07.512Z,72.44
2023-02-19T02:01:36.752Z,72.45
2023-02-19T02:04:06.220Z,72.58
2023-02-19T02:06:38.170Z,72.64
2023-02-19T02:09:25.345Z,73.01
2023-02-19T02:11:54.633Z,72.73
2023-02-19T02:14:27.480Z,72.72
2023-02-19T02:17:00.960Z,73.16
2023-02-19T02:19:37.904Z,72.73
2023-02-19T02:22:12.392Z,72.64
2023-02-19T02:25:17.044Z,72.65
2023-02-19T02:27:54.977Z,73.14
2023-02-19T02:30:36.443Z,72.76
2023-02-19T02:33:14.166Z,72.77
2023-02-19T02:35:46.097Z,72.88
2023-02-19T02:38:15.815Z,72.79
2023-02-19T02:40:45.627Z,72.99
2023-02-19T02:43:14.803Z,73.06
2023-02-19T02:45:42.542Z,73.26
2023-02-19T02:48:36.553Z,73.38
2023-02-19T02:51:12.390Z,73.66
2023-02-19T02:54:06.981Z,74.06
2023-02-19T02:56:36.344Z,74.00
2023-02-19T02:59:07.757Z,74.37
2023-02-19T03:01:57.139Z,74.57
2023-02-19T03:04:28.078Z,74.66
2023-02-19T03:06:59.421Z,74.80
2023-02-19T03:09:32.331Z,74.58
2023-02-19T03:12:21.575Z,74.66
2023-02-19T03:15:10.926Z,75.02
2023-02-19T03:18:01.147Z,74.73
2023-02-19T03:20:30.829Z,74.56
2023-02-19T03:23:00.539Z,74.93
2023-02-19T03:25:52.246Z,74.67
2023-02-19T03:28:44.543Z,74.67
2023-02-19T03:31:16.590Z,74.93
2023-02-19T03:33:50.499Z,74.78
2023-02-19T03:36:25.397Z,74.62
2023-02-19T03:38:54.723Z,74.61
2023-02-19T03:41:29.070Z,74.76
2023-02-19T03:44:07.736Z,74.61
2023-02-19T03:46:44.482Z,74.85
2023-02-19T03:49:23.058Z,74.64
2023-02-19T03:51:55.398Z,74.58
2023-02-19T03:54:32.197Z,74.32
2023-02-19T03:57:05.953Z,74.57
2023-02-19T03:59:39.221Z,74.43
2023-02-19T04:02:11.390Z,74.54
2023-02-19T04:04:45.332Z,74.42
2023-02-19T04:07:14.444Z,74.33
2023-02-19T04:09:46.039Z,74.12
2023-02-19T04:12:18.404Z,74.00
2023-02-19T04:14:52.206Z,73.90
2023-02-19T04:17:23.655Z,74.07
2023-02-19T04:19:53.770Z,74.03
2023-02-19T04:22:22.865Z,73.95
2023-02-19T04:24:53.293Z,74.25
2023-02-19T04:27:21.828Z,74.14
2023-02-19T04:29:50.278Z,74.25
2023-02-19T04:32:18.727Z,74.06
2023-02-19T04:34:47.180Z,73.99
2023-02-19T04:37:15.581Z,73.91
2023-02-19T04:39:44.246Z,74.32
2023-02-19T04:42:11.762Z,74.07
2023-02-19T04:44:40.155Z,74.02
2023-02-19T04:47:08.667Z,74.05
2023-02-19T04:49:37.194Z,74.16
2023-02-19T04:52:05.801Z,74.26
2023-02-19T04:54:34.170Z,73.93
2023-02-19T04:57:02.724Z,74.48
2023-02-19T04:59:31.376Z,74.26
2023-02-19T05:01:58.832Z,74.04
2023-02-19T05:04:27.503Z,74.24
2023-02-19T05:06:55.890Z,74.11
2023-02-19T05:09:24.292Z,74.25
2023-02-19T05:11:52.710Z,74.48
2023-02-19T05:14:21.082Z,74.14
2023-02-19T05:16:49.471Z,74.68
2023-02-19T05:19:18.023Z,74.37
2023-02-19T05:21:46.417Z,74.09
2023-02-19T05:24:14.834Z,74.53
2023-02-19T05:26:47.645Z,73.98
2023-02-19T05:29:16.021Z,74.13
2023-02-19T05:31:44.558Z,74.15
2023-02-19T05:34:12.254Z,74.43
2023-02-19T05:36:41.255Z,74.20
2023-02-19T05:39:12.055Z,74.18
2023-02-19T05:41:40.595Z,74.44
2023-02-19T05:44:11.156Z,74.44
2023-02-19T05:46:39.893Z,74.55
2023-02-19T05:49:08.362Z,74.83
2023-02-19T05:51:36.907Z,74.64
2023-02-19T05:54:05.767Z,74.73
2023-02-19T05:56:35.766Z,74.52
2023-02-19T05:59:07.302Z,74.84
2023-02-19T06:01:36.416Z,74.73
2023-02-19T06:04:05.485Z,74.78
2023-02-19T06:06:33.975Z,74.69
2023-02-19T06:09:02.446Z,74.70
2023-02-19T06:11:31.408Z,75.20
2023-02-19T06:13:59.822Z,75.11
2023-02-19T06:16:28.635Z,74.95
2023-02-19T06:18:57.375Z,75.01
2023-02-19T06:21:24.909Z,75.02
2023-02-19T06:23:53.961Z,75.14
2023-02-19T06:26:24.148Z,75.33
2023-02-19T06:28:53.543Z,75.37
2023-02-19T06:31:22.978Z,75.51
2023-02-19T06:33:51.637Z,75.72
2023-02-19T06:36:21.181Z,75.50
2023-02-19T06:38:49.636Z,75.29
2023-02-19T06:41:18.361Z,75.25
2023-02-19T06:43:46.887Z,75.02
2023-02-19T06:46:15.423Z,75.26
2023-02-19T06:48:43.386Z,75.24
2023-02-19T06:51:14.650Z,75.28
2023-02-19T06:53:43.103Z,75.11
2023-02-19T06:56:24.471Z,75.27
2023-02-19T06:58:53.779Z,75.33
2023-02-19T07:01:22.645Z,75.16
2023-02-19T07:03:51.926Z,74.86
2023-02-19T07:06:20.864Z,74.93
2023-02-19T07:08:49.752Z,74.90
2023-02-19T07:11:18.390Z,74.51
2023-02-19T07:13:46.139Z,74.81
2023-02-19T07:16:17.640Z,74.31
2023-02-19T07:18:46.210Z,74.10
2023-02-19T07:21:15.710Z,74.18
2023-02-19T07:23:44.381Z,74.33
2023-02-19T07:26:12.625Z,74.57
2023-02-19T07:28:41.891Z,74.35
2023-02-19T07:31:11.197Z,74.06
2023-02-19T07:33:39.883Z,74.10
2023-02-19T07:36:10.095Z,73.98
2023-02-19T07:38:38.565Z,73.85
2023-02-19T07:41:07.618Z,74.13
2023-02-19T07:43:37.460Z,74.05
2023-02-19T07:46:06.939Z,73.87
2023-02-19T07:48:36.282Z,73.91
2023-02-19T07:51:06.092Z,73.74
2023-02-19T07:53:35.075Z,73.67
2023-02-19T07:56:06.131Z,73.42
2023-02-19T07:58:34.999Z,73.19
2023-02-19T08:01:11.470Z,73.48
2023-02-19T08:03:40.408Z,72.91
2023-02-19T08:06:10.851Z,72.93
2023-02-19T08:08:41.311Z,72.45
2023-02-19T08:11:28.503Z,72.42
2023-02-19T08:13:56.886Z,72.53
2023-02-19T08:16:40.665Z,72.53
2023-02-19T08:19:09.705Z,72.63
2023-02-19T08:21:37.203Z,71.96
2023-02-19T08:24:06.690Z,71.98
2023-02-19T08:26:35.388Z,71.98
2023-02-19T08:29:04.454Z,71.94
2023-02-19T08:31:33.557Z,71.90
2023-02-19T08:34:02.357Z,71.99
2023-02-19T08:36:30.968Z,71.62
2023-02-19T08:38:58.478Z,71.63
2023-02-19T08:41:27.503Z,71.87
2023-02-19T08:43:55.952Z,71.19
2023-02-19T08:46:24.479Z,71.60
2023-02-19T08:48:52.890Z,71.29
2023-02-19T08:51:21.279Z,71.31
2023-02-19T08:53:49.948Z,70.61
2023-02-19T08:56:18.606Z,70.78
2023-02-19T08:58:47.142Z,70.55
2023-02-19T09:01:17.584Z,70.32
2023-02-19T09:03:46.170Z,70.08
2023-02-19T09:06:15.785Z,69.74
2023-02-19T09:08:45.139Z,69.80
2023-02-19T09:11:15.028Z,69.86
2023-02-19T09:13:44.117Z,70.23
2023-02-19T09:16:12.579Z,70.26
2023-02-19T09:18:41.069Z,69.58
2023-02-19T09:21:09.734Z,69.40
2023-02-19T09:23:38.735Z,69.60
2023-02-19T09:26:09.397Z,69.85
2023-02-19T09:28:41.343Z,69.71
2023-02-19T09:31:11.613Z,69.86
2023-02-19T09:33:43.612Z,69.45
2023-02-19T09:36:12.649Z,69.90
2023-02-19T09:38:41.120Z,69.89
2023-02-19T09:41:15.677Z,70.31
2023-02-19T09:43:44.525Z,70.28
2023-02-19T09:46:24.284Z,69.95
2023-02-19T09:48:53.847Z,69.74
2023-02-19T09:51:22.704Z,69.73
2023-02-19T09:53:51.796Z,69.52
2023-02-19T09:56:20.238Z,69.64
2023-02-19T09:58:50.253Z,69.63
2023-02-19T10:01:19.167Z,69.77
2023-02-19T10:03:48.724Z,69.50
2023-02-19T10:06:21.095Z,68.91
2023-02-19T10:08:51.514Z,69.23
2023-02-19T10:11:20.558Z,68.96
2023-02-19T10:13:51.398Z,68.85
2023-02-19T10:16:22.616Z,68.83
2023-02-19T10:18:51.091Z,68.63
2023-02-19T10:21:19.515Z,68.48
2023-02-19T10:23:49.866Z,67.37
2023-02-19T10:26:18.458Z,67.21
2023-02-19T10:28:46.386Z,66.91
2023-02-19T10:31:20.360Z,66.69
2023-02-19T10:33:51.097Z,66.65
2023-02-19T10:36:26.491Z,66.00
2023-02-19T10:38:54.971Z,65.54
2023-02-19T10:41:22.855Z,65.04
2023-02-19T10:43:55.589Z,63.44
2023-02-19T10:46:26.066Z,63.58
2023-02-19T10:48:57.219Z,62.59
2023-02-19T10:51:33.161Z,61.85
2023-02-19T10:54:06.442Z,61.56
2023-02-19T10:56:36.968Z,61.88
2023-02-19T10:59:24.889Z,61.46
2023-02-19T11:01:57.771Z,59.93
2023-02-19T11:04:28.490Z,59.12
2023-02-19T11:06:57.630Z,59.60
2023-02-19T11:09:29.069Z,58.57
2023-02-19T11:11:58.878Z,59.46
2023-02-19T11:14:28.147Z,59.80
2023-02-19T11:16:57.977Z,58.83
2023-02-19T11:19:30.432Z,59.03
2023-02-19T11:22:00.601Z,59.27
2023-02-19T11:24:34.167Z,59.88
2023-02-19T11:27:05.238Z,59.77
2023-02-19T11:29:34.965Z,60.12
2023-02-19T11:32:32.787Z,59.60
2023-02-19T11:35:22.506Z,60.21
2023-02-19T11:37:58.958Z,59.35
2023-02-19T11:40:41.214Z,59.70
2023-02-19T11:43:26.752Z,59.57
2023-02-19T11:46:01.720Z,57.49
2023-02-19T11:48:41.405Z,57.33
2023-02-19T11:51:37.845Z,57.18
2023-02-19T11:54:15.605Z,57.24
2023-02-19T11:56:45.348Z,57.45
2023-02-19T11:59:20.080Z,57.66
2023-02-19T12:02:04.922Z,58.03
2023-02-19T12:04:53.611Z,57.58
2023-02-19T12:07:37.481Z,56.68
2023-02-19T12:10:14.087Z,57.33
2023-02-19T12:12:52.235Z,58.20
2023-02-19T12:15:45.875Z,58.27
2023-02-19T12:18:23.676Z,58.35
2023-02-19T12:20:59.158Z,57.67
2023-02-19T12:23:58.755Z,57.67
2023-02-19T12:26:29.606Z,57.00
2023-02-19T12:29:11.130Z,56.61
2023-02-19T12:31:53.918Z,56.95
2023-02-19T12:34:40.047Z,56.42
2023-02-19T12:37:18.805Z,55.95
2023-02-19T12:39:54.856Z,55.25
2023-02-19T12:42:33.618Z,56.22
2023-02-19T12:45:05.140Z,56.15
2023-02-19T12:47:36.579Z,55.95
2023-02-19T12:50:14.181Z,56.26
2023-02-19T12:52:45.744Z,56.12
2023-02-19T12:55:21.226Z,56.43
2023-02-19T12:57:51.550Z,56.62
2023-02-19T13:00:29.867Z,56.72
2023-02-19T13:03:03.598Z,57.13
2023-02-19T13:05:41.047Z,57.71
2023-02-19T13:08:14.342Z,58.32
2023-02-19T13:10:45.783Z,59.69
2023-02-19T13:13:17.516Z,59.36
2023-02-19T13:15:48.615Z,59.83
2023-02-19T13:18:20.147Z,59.90
2023-02-19T13:20:51.163Z,59.53
2023-02-19T13:23:42.056Z,58.45
2023-02-19T13:26:30.559Z,57.79
2023-02-19T13:29:08.111Z,57.17
2023-02-19T13:31:50.587Z,57.31
2023-02-19T13:34:26.216Z,57.03
2023-02-19T13:36:55.220Z,57.10
2023-02-19T13:39:23.989Z,56.69
2023-02-19T13:41:53.339Z,57.04
2023-02-19T13:44:23.370Z,57.23
2023-02-19T13:46:51.979Z,56.82
2023-02-19T13:49:41.533Z,55.95
2023-02-19T13:52:42.522Z,55.13
2023-02-19T13:55:52.381Z,55.77
2023-02-19T13:58:54.481Z,56.28
2023-02-19T14:01:55.052Z,56.36
2023-02-19T14:04:24.601Z,56.41
2023-02-19T14:07:44.558Z,56.48
2023-02-19T14:10:34.590Z,56.21
2023-02-19T14:13:03.048Z,56.75
2023-02-19T14:15:44.141Z,56.45
2023-02-19T14:18:44.650Z,56.38
2023-02-19T14:21:22.538Z,56.23
2023-02-19T14:23:53.015Z,55.62
2023-02-19T14:26:22.082Z,55.70
2023-02-19T14:28:52.891Z,55.90
2023-02-19T14:31:26.537Z,56.62
2023-02-19T14:33:56.625Z,57.35
2023-02-19T14:36:43.397Z,56.89
2023-02-19T14:39:14.377Z,56.94
2023-02-19T14:41:45.118Z,56.97
2023-02-19T14:44:18.037Z,56.64
2023-02-19T14:46:51.286Z,57.05
2023-02-19T14:49:23.738Z,56.01
2023-02-19T14:51:55.287Z,56.48
2023-02-19T14:54:38.510Z,56.04
2023-02-19T14:57:12.618Z,55.77
2023-02-19T14:59:41.081Z,55.66
2023-02-19T15:02:16.452Z,55.79
2023-02-19T15:04:45.094Z,56.50
2023-02-19T15:07:14.320Z,55.86
2023-02-19T15:09:45.769Z,55.62
2023-02-19T15:12:20.291Z,56.23
2023-02-19T15:14:49.576Z,56.41
2023-02-19T15:17:24.557Z,56.23
2023-02-19T15:19:54.191Z,56.13
2023-02-19T15:22:24.225Z,56.51
2023-02-19T15:24:52.654Z,56.83
2023-02-19T15:27:23.068Z,57.14
2023-02-19T15:29:53.700Z,56.98
2023-02-19T15:32:25.591Z,57.75
2023-02-19T15:34:58.719Z,58.66
2023-02-19T15:37:28.922Z,58.80
2023-02-19T15:39:58.915Z,58.42
2023-02-19T15:42:29.638Z,58.22
2023-02-19T15:45:01.672Z,58.14
2023-02-19T15:47:34.982Z,57.90
2023-02-19T15:50:10.872Z,57.39
2023-02-19T15:52:44.853Z,56.77
2023-02-19T15:55:24.866Z,55.82
2023-02-19T15:57:56.950Z,56.79
2023-02-19T16:00:32.382Z,56.85
2023-02-19T16:03:01.109Z,57.44
2023-02-19T16:05:30.064Z,57.08
2023-02-19T16:08:16.230Z,57.26
2023-02-19T16:10:54.766Z,57.76
2023-02-19T16:13:27.563Z,57.89
2023-02-19T16:16:10.400Z,58.29
2023-02-19T16:18:38.938Z,58.54
2023-02-19T16:21:10.825Z,58.76
2023-02-19T16:23:43.597Z,59.05
2023-02-19T16:26:12.026Z,59.44
2023-02-19T16:28:41.635Z,58.93
2023-02-19T16:31:12.529Z,59.07
2023-02-19T16:33:42.312Z,59.39
2023-02-19T16:36:21.421Z,59.05
2023-02-19T16:39:24.192Z,59.18
2023-02-19T16:42:19.094Z,59.00
2023-02-19T16:44:47.987Z,59.62
2023-02-19T16:47:23.142Z,59.31
2023-02-19T16:49:51.961Z,59.00
2023-02-19T16:52:20.432Z,59.38
2023-02-19T16:54:49.246Z,59.53
2023-02-19T16:57:17.682Z,59.11
2023-02-19T16:59:46.224Z,59.56
2023-02-19T17:02:19.619Z,59.77
2023-02-19T17:04:50.299Z,60.10
2023-02-19T17:07:18.871Z,60.14
2023-02-19T17:09:47.502Z,60.00
2023-02-19T17:12:17.096Z,60.06
2023-02-19T17:14:45.959Z,59.93
2023-02-19T17:17:16.682Z,59.74
2023-02-19T17:19:45.173Z,59.81
2023-02-19T17:22:16.345Z,59.65
2023-02-19T17:24:45.816Z,59.53
2023-02-19T17:27:14.640Z,59.39
2023-02-19T17:29:43.196Z,59.56
2023-02-19T17:32:10.877Z,59.55
2023-02-19T17:34:39.432Z,59.78
2023-02-19T17:37:08.189Z,59.46
2023-02-19T17:39:36.729Z,60.01
2023-02-19T17:42:05.725Z,59.81
2023-02-19T17:44:34.158Z,59.01
2023-02-19T17:47:02.955Z,58.38
2023-02-19T17:49:32.408Z,58.41
2023-02-19T17:52:00.836Z,58.43
2023-02-19T17:54:29.356Z,57.70
2023-02-19T17:56:57.882Z,57.58
2023-02-19T17:59:26.298Z,57.00
2023-02-19T18:01:55.087Z,57.83
2023-02-19T18:04:23.683Z,57.78
2023-02-19T18:06:53.379Z,58.10
2023-02-19T18:09:22.480Z,57.31
2023-02-19T18:11:51.038Z,57.82
2023-02-19T18:14:19.511Z,56.88
2023-02-19T18:16:50.258Z,57.10
2023-02-19T18:19:19.249Z,56.86
2023-02-19T18:21:47.747Z,57.16
2023-02-19T18:24:16.315Z,57.48
2023-02-19T18:26:44.025Z,57.48
2023-02-19T18:29:12.532Z,57.58
2023-02-19T18:31:41.111Z,57.94
2023-02-19T18:34:17.538Z,58.24
2023-02-19T18:36:46.663Z,58.45
2023-02-19T18:39:15.678Z,58.53
2023-02-19T18:41:48.231Z,58.81
2023-02-19T18:44:19.330Z,59.03
2023-02-19T18:46:47.903Z,58.80
2023-02-19T18:49:15.967Z,58.53
2023-02-19T18:51:45.393Z,59.12
2023-02-19T18:54:13.830Z,59.37
2023-02-19T18:56:43.661Z,59.08
2023-02-19T18:59:13.002Z,59.49
2023-02-19T19:01:41.583Z,60.04
2023-02-19T19:04:10.066Z,59.70
2023-02-19T19:06:38.570Z,59.70
2023-02-19T19:09:07.080Z,59.67
2023-02-19T19:11:36.619Z,59.56
2023-02-19T19:14:05.290Z,59.67
2023-02-19T19:16:32.862Z,59.33
2023-02-19T19:19:02.224Z,59.48
2023-02-19T19:21:30.789Z,59.42
2023-02-19T19:23:59.383Z,59.28
2023-02-19T19:26:27.763Z,59.85
2023-02-19T19:28:56.345Z,59.95
2023-02-19T19:31:25.000Z,59.83
2023-02-19T19:33:53.675Z,59.86
2023-02-19T19:36:23.017Z,59.50
2023-02-19T19:38:51.413Z,59.86
2023-02-19T19:41:20.965Z,60.21
2023-02-19T19:43:49.410Z,60.27
2023-02-19T19:46:19.543Z,60.28
2023-02-19T19:48:49.346Z,60.36
2023-02-19T19:51:17.968Z,60.57
2023-02-19T19:53:48.362Z,60.95
2023-02-19T19:56:17.149Z,61.37
2023-02-19T19:58:44.662Z,61.52
2023-02-19T20:01:14.602Z,61.52
2023-02-19T20:03:43.149Z,61.61
2023-02-19T20:06:11.557Z,61.38
2023-02-19T20:08:39.945Z,61.24
2023-02-19T20:11:08.414Z,61.28
2023-02-19T20:13:36.923Z,60.93
2023-02-19T20:16:10.119Z,60.78
2023-02-19T20:18:38.569Z,61.09
2023-02-19T20:21:08.873Z,60.85
2023-02-19T20:23:38.368Z,60.71
2023-02-19T20:26:07.070Z,60.79
2023-02-19T20:28:34.690Z,60.99
2023-02-19T20:31:03.376Z,61.11
2023-02-19T20:33:30.971Z,60.82
2023-02-19T20:35:59.367Z,61.12
2023-02-19T20:38:27.764Z,61.22
2023-02-19T20:40:57.639Z,61.40
2023-02-19T20:43:27.861Z,61.38
2023-02-19T20:45:57.000Z,61.33
2023-02-19T20:48:25.493Z,61.29
2023-02-19T20:50:58.639Z,61.50
2023-02-19T20:53:27.138Z,61.73
2023-02-19T20:55:55.791Z,61.83
2023-02-19T20:58:24.504Z,61.82
2023-02-19T21:00:53.701Z,61.66
2023-02-19T21:03:22.556Z,61.51
2023-02-19T21:05:50.982Z,61.49
2023-02-19T21:08:19.378Z,61.39
2023-02-19T21:10:47.733Z,61.59
2023-02-19T21:13:16.370Z,61.60
2023-02-19T21:15:45.148Z,61.80
2023-02-19T21:18:13.553Z,61.57
2023-02-19T21:20:41.935Z,61.71
2023-02-19T21:23:10.398Z,61.91
2023-02-19T21:25:38.768Z,61.71
2023-02-19T21:28:09.059Z,61.78
2023-02-19T21:30:37.596Z,61.88
2023-02-19T21:33:06.050Z,62.04
2023-02-19T21:35:34.428Z,62.24
2023-02-19T21:38:03.115Z,62.41
2023-02-19T21:40:32.329Z,62.56
2023-02-19T21:43:01.250Z,62.54
2023-02-19T21:45:29.621Z,62.82
2023-02-19T21:47:58.430Z,62.79
2023-02-19T21:50:27.051Z,63.14
2023-02-19T21:52:55.457Z,63.11
2023-02-19T21:55:23.738Z,62.94
2023-02-19T21:57:53.422Z,63.17
2023-02-19T22:00:22.347Z,63.18
2023-02-19T22:02:50.936Z,63.34
2023-02-19T22:05:18.582Z,63.47
2023-02-19T22:07:48.462Z,63.38
2023-02-19T22:10:19.818Z,63.58
2023-02-19T22:12:48.212Z,63.49
2023-02-19T22:15:17.043Z,63.98
2023-02-19T22:17:46.076Z,64.29
2023-02-19T22:20:16.599Z,64.42
2023-02-19T22:22:45.715Z,64.55
2023-02-19T22:25:14.324Z,64.77
2023-02-19T22:27:42.796Z,65.00
2023-02-19T22:45:01.723Z,65.25
2023-02-19T22:47:33.569Z,65.23
2023-02-19T22:50:05.714Z,65.27
2023-02-19T22:52:42.063Z,65.47
2023-02-19T22:55:14.010Z,65.62
2023-02-19T22:57:45.859Z,65.70
2023-02-19T23:00:21.686Z,66.02
2023-02-19T23:02:53.581Z,66.43
2023-02-19T23:05:25.541Z,66.35
2023-02-19T23:07:57.479Z,66.98
2023-02-19T23:10:29.327Z,67.10
2023-02-19T23:13:01.206Z,67.33
2023-02-19T23:15:33.042Z,67.38
2023-02-19T23:18:06.367Z,67.27
2023-02-19T23:20:38.247Z,67.28
2023-02-19T23:23:10.084Z,67.05
2023-02-19T23:25:41.991Z,67.42
2023-02-19T23:28:13.832Z,67.68
2023-02-19T23:30:45.881Z,67.41
2023-02-19T23:33:18.029Z,67.51
2023-02-19T23:35:49.886Z,67.75
2023-02-19T23:38:21.855Z,67.82
2023-02-19T23:40:53.810Z,67.91
2023-02-19T23:43:25.776Z,68.02
2023-02-19T23:45:57.641Z,68.13
2023-02-19T23:48:29.477Z,68.22
2023-02-19T23:51:01.742Z,68.35
2023-02-19T23:53:33.646Z,69.13
2023-02-19T23:56:05.754Z,69.88
2023-02-19T23:58:37.673Z,70.60
